sensor_id;sensor_type;location;lat;lon;timestamp;P1;durP1;ratioP1;P2;durP2;ratioP2
3022;SDS011;1521;53.584;9.938;2023-04-08T00:00:46;26.83;;;13.40;;
3022;SDS011;1521;53.584;9.938;2023-04-08T00:03:12;28.73;;;13.60;;
3022;SDS011;1521;53.584;9.938;2023-04-08T00:05:38;29.70;;;14.80;;
3022;SDS011;1521;53.584;9.938;2023-04-08T00:08:04;29.83;;;14.30;;
3022;SDS011;1521;53.584;9.938;2023-04-08T00:10:30;31.83;;;14.80;;
3022;SDS011;1521;53.584;9.938;2023-04-08T00:12:56;27.47;;;14.43;;
3022;SDS011;1521;53.584;9.938;2023-04-08T00:15:21;24.40;;;12.90;;
3022;SDS011;1521;53.584;9.938;2023-04-08T00:17:47;29.33;;;13.90;;
3022;SDS011;1521;53.584;9.938;2023-04-08T00:20:12;30.47;;;14.20;;
3022;SDS011;1521;53.584;9.938;2023-04-08T00:22:38;28.20;;;14.47;;
3022;SDS011;1521;53.584;9.938;2023-04-08T00:25:04;24.30;;;12.50;;
3022;SDS011;1521;53.584;9.938;2023-04-08T00:27:33;24.07;;;13.60;;
3022;SDS011;1521;53.584;9.938;2023-04-08T00:29:59;29.40;;;15.83;;
3022;SDS011;1521;53.584;9.938;2023-04-08T00:32:25;25.23;;;13.23;;
3022;SDS011;1521;53.584;9.938;2023-04-08T00:34:52;25.97;;;12.90;;
3022;SDS011;1521;53.584;9.938;2023-04-08T00:37:18;24.93;;;12.23;;
3022;SDS011;1521;53.584;9.938;2023-04-08T00:39:43;24.97;;;13.80;;
3022;SDS011;1521;53.584;9.938;2023-04-08T00:42:09;24.37;;;13.93;;
3022;SDS011;1521;53.584;9.938;2023-04-08T00:44:35;29.17;;;13.63;;
3022;SDS011;1521;53.584;9.938;2023-04-08T00:47:00;24.53;;;12.23;;
3022;SDS011;1521;53.584;9.938;2023-04-08T00:49:27;24.67;;;13.53;;
3022;SDS011;1521;53.584;9.938;2023-04-08T00:51:54;25.63;;;13.57;;
3022;SDS011;1521;53.584;9.938;2023-04-08T00:54:20;21.87;;;12.20;;
3022;SDS011;1521;53.584;9.938;2023-04-08T00:56:45;27.20;;;13.30;;
3022;SDS011;1521;53.584;9.938;2023-04-08T00:59:11;22.87;;;12.70;;
3022;SDS011;1521;53.584;9.938;2023-04-08T01:09:47;26.70;;;12.90;;
3022;SDS011;1521;53.584;9.938;2023-04-08T01:12:17;21.07;;;12.40;;
3022;SDS011;1521;53.584;9.938;2023-04-08T01:14:51;23.77;;;12.27;;
3022;SDS011;1521;53.584;9.938;2023-04-08T01:17:25;30.20;;;16.20;;
3022;SDS011;1521;53.584;9.938;2023-04-08T01:19:51;19.60;;;11.33;;
3022;SDS011;1521;53.584;9.938;2023-04-08T01:25:05;20.33;;;11.73;;
3022;SDS011;1521;53.584;9.938;2023-04-08T01:27:36;24.93;;;12.33;;
3022;SDS011;1521;53.584;9.938;2023-04-08T01:30:03;25.50;;;12.43;;
3022;SDS011;1521;53.584;9.938;2023-04-08T01:32:31;20.93;;;11.20;;
3022;SDS011;1521;53.584;9.938;2023-04-08T01:34:57;22.83;;;11.90;;
3022;SDS011;1521;53.584;9.938;2023-04-08T01:37:25;22.30;;;11.83;;
3022;SDS011;1521;53.584;9.938;2023-04-08T01:39:54;24.80;;;12.40;;
3022;SDS011;1521;53.584;9.938;2023-04-08T01:42:21;22.67;;;11.73;;
3022;SDS011;1521;53.584;9.938;2023-04-08T01:44:49;24.33;;;11.57;;
3022;SDS011;1521;53.584;9.938;2023-04-08T01:47:16;20.40;;;11.87;;
3022;SDS011;1521;53.584;9.938;2023-04-08T01:49:43;24.20;;;13.27;;
3022;SDS011;1521;53.584;9.938;2023-04-08T01:52:09;27.37;;;14.17;;
3022;SDS011;1521;53.584;9.938;2023-04-08T01:54:35;25.20;;;12.80;;
3022;SDS011;1521;53.584;9.938;2023-04-08T01:57:01;23.17;;;12.70;;
3022;SDS011;1521;53.584;9.938;2023-04-08T01:59:33;42.77;;;21.57;;
3022;SDS011;1521;53.584;9.938;2023-04-08T02:02:00;28.60;;;13.50;;
3022;SDS011;1521;53.584;9.938;2023-04-08T02:04:27;29.70;;;17.57;;
3022;SDS011;1521;53.584;9.938;2023-04-08T02:06:53;25.90;;;12.50;;
3022;SDS011;1521;53.584;9.938;2023-04-08T02:09:21;23.60;;;12.80;;
3022;SDS011;1521;53.584;9.938;2023-04-08T02:11:47;23.70;;;11.53;;
3022;SDS011;1521;53.584;9.938;2023-04-08T02:14:12;20.20;;;11.50;;
3022;SDS011;1521;53.584;9.938;2023-04-08T02:16:52;22.20;;;11.13;;
3022;SDS011;1521;53.584;9.938;2023-04-08T02:19:30;20.07;;;12.73;;
3022;SDS011;1521;53.584;9.938;2023-04-08T02:22:11;23.40;;;12.77;;
3022;SDS011;1521;53.584;9.938;2023-04-08T02:24:47;22.63;;;12.83;;
3022;SDS011;1521;53.584;9.938;2023-04-08T02:27:15;23.77;;;13.53;;
3022;SDS011;1521;53.584;9.938;2023-04-08T02:29:41;21.23;;;11.60;;
3022;SDS011;1521;53.584;9.938;2023-04-08T02:32:07;26.63;;;13.90;;
3022;SDS011;1521;53.584;9.938;2023-04-08T02:34:36;22.60;;;13.50;;
3022;SDS011;1521;53.584;9.938;2023-04-08T02:37:05;27.30;;;13.63;;
3022;SDS011;1521;53.584;9.938;2023-04-08T02:39:32;27.17;;;13.30;;
3022;SDS011;1521;53.584;9.938;2023-04-08T02:41:58;21.40;;;12.73;;
3022;SDS011;1521;53.584;9.938;2023-04-08T02:44:23;20.40;;;12.70;;
3022;SDS011;1521;53.584;9.938;2023-04-08T02:46:49;21.30;;;12.80;;
3022;SDS011;1521;53.584;9.938;2023-04-08T02:49:15;20.70;;;12.80;;
3022;SDS011;1521;53.584;9.938;2023-04-08T02:51:40;22.73;;;12.60;;
3022;SDS011;1521;53.584;9.938;2023-04-08T02:54:06;19.07;;;12.93;;
3022;SDS011;1521;53.584;9.938;2023-04-08T02:56:32;21.60;;;12.83;;
3022;SDS011;1521;53.584;9.938;2023-04-08T02:58:57;20.30;;;12.20;;
3022;SDS011;1521;53.584;9.938;2023-04-08T03:01:23;21.53;;;12.23;;
3022;SDS011;1521;53.584;9.938;2023-04-08T03:03:48;26.63;;;13.73;;
3022;SDS011;1521;53.584;9.938;2023-04-08T03:06:14;30.67;;;14.77;;
3022;SDS011;1521;53.584;9.938;2023-04-08T03:08:40;26.70;;;13.97;;
3022;SDS011;1521;53.584;9.938;2023-04-08T03:11:06;25.87;;;16.10;;
3022;SDS011;1521;53.584;9.938;2023-04-08T03:13:32;25.17;;;13.57;;
3022;SDS011;1521;53.584;9.938;2023-04-08T03:15:58;23.23;;;14.07;;
3022;SDS011;1521;53.584;9.938;2023-04-08T03:18:24;23.67;;;14.27;;
3022;SDS011;1521;53.584;9.938;2023-04-08T03:20:49;23.27;;;14.20;;
3022;SDS011;1521;53.584;9.938;2023-04-08T03:23:15;22.00;;;13.77;;
3022;SDS011;1521;53.584;9.938;2023-04-08T03:25:41;27.03;;;14.97;;
3022;SDS011;1521;53.584;9.938;2023-04-08T03:28:06;22.27;;;13.97;;
3022;SDS011;1521;53.584;9.938;2023-04-08T03:30:32;24.57;;;14.97;;
3022;SDS011;1521;53.584;9.938;2023-04-08T03:32:58;26.77;;;13.83;;
3022;SDS011;1521;53.584;9.938;2023-04-08T03:35:23;22.43;;;13.73;;
3022;SDS011;1521;53.584;9.938;2023-04-08T03:37:49;26.63;;;15.47;;
3022;SDS011;1521;53.584;9.938;2023-04-08T03:40:15;28.10;;;16.60;;
3022;SDS011;1521;53.584;9.938;2023-04-08T03:42:40;24.73;;;14.53;;
3022;SDS011;1521;53.584;9.938;2023-04-08T03:45:06;27.83;;;15.50;;
3022;SDS011;1521;53.584;9.938;2023-04-08T03:47:32;27.80;;;16.00;;
3022;SDS011;1521;53.584;9.938;2023-04-08T03:49:58;31.43;;;16.30;;
3022;SDS011;1521;53.584;9.938;2023-04-08T03:52:23;28.50;;;15.23;;
3022;SDS011;1521;53.584;9.938;2023-04-08T03:54:49;37.50;;;16.60;;
3022;SDS011;1521;53.584;9.938;2023-04-08T03:57:15;28.37;;;16.10;;
3022;SDS011;1521;53.584;9.938;2023-04-08T03:59:40;34.03;;;16.73;;
3022;SDS011;1521;53.584;9.938;2023-04-08T04:02:06;30.83;;;15.80;;
3022;SDS011;1521;53.584;9.938;2023-04-08T04:04:32;30.00;;;16.70;;
3022;SDS011;1521;53.584;9.938;2023-04-08T04:06:58;35.73;;;16.73;;
3022;SDS011;1521;53.584;9.938;2023-04-08T04:09:23;31.67;;;15.40;;
3022;SDS011;1521;53.584;9.938;2023-04-08T04:11:49;33.03;;;17.30;;
3022;SDS011;1521;53.584;9.938;2023-04-08T04:14:14;31.50;;;17.00;;
3022;SDS011;1521;53.584;9.938;2023-04-08T04:16:40;36.93;;;18.20;;
3022;SDS011;1521;53.584;9.938;2023-04-08T04:19:06;35.47;;;18.27;;
3022;SDS011;1521;53.584;9.938;2023-04-08T04:21:31;35.60;;;17.90;;
3022;SDS011;1521;53.584;9.938;2023-04-08T04:23:57;43.10;;;18.97;;
3022;SDS011;1521;53.584;9.938;2023-04-08T04:26:23;45.93;;;20.67;;
3022;SDS011;1521;53.584;9.938;2023-04-08T04:28:48;36.73;;;18.33;;
3022;SDS011;1521;53.584;9.938;2023-04-08T04:31:17;43.10;;;18.07;;
3022;SDS011;1521;53.584;9.938;2023-04-08T04:33:46;47.53;;;19.20;;
3022;SDS011;1521;53.584;9.938;2023-04-08T04:36:13;37.53;;;19.70;;
3022;SDS011;1521;53.584;9.938;2023-04-08T04:38:39;36.73;;;18.60;;
3022;SDS011;1521;53.584;9.938;2023-04-08T04:41:06;41.50;;;19.80;;
3022;SDS011;1521;53.584;9.938;2023-04-08T04:43:32;46.07;;;19.63;;
3022;SDS011;1521;53.584;9.938;2023-04-08T04:45:58;45.50;;;19.50;;
3022;SDS011;1521;53.584;9.938;2023-04-08T04:48:23;50.27;;;20.47;;
3022;SDS011;1521;53.584;9.938;2023-04-08T04:50:55;41.67;;;19.27;;
3022;SDS011;1521;53.584;9.938;2023-04-08T04:53:22;41.77;;;19.07;;
3022;SDS011;1521;53.584;9.938;2023-04-08T04:55:48;40.97;;;18.43;;
3022;SDS011;1521;53.584;9.938;2023-04-08T04:58:14;44.67;;;19.50;;
3022;SDS011;1521;53.584;9.938;2023-04-08T05:00:40;37.93;;;19.27;;
3022;SDS011;1521;53.584;9.938;2023-04-08T05:03:06;43.80;;;19.67;;
3022;SDS011;1521;53.584;9.938;2023-04-08T05:05:31;47.27;;;19.67;;
3022;SDS011;1521;53.584;9.938;2023-04-08T05:07:57;47.13;;;19.83;;
3022;SDS011;1521;53.584;9.938;2023-04-08T05:10:23;44.23;;;21.60;;
3022;SDS011;1521;53.584;9.938;2023-04-08T05:12:48;43.50;;;19.20;;
3022;SDS011;1521;53.584;9.938;2023-04-08T05:15:14;45.03;;;20.67;;
3022;SDS011;1521;53.584;9.938;2023-04-08T05:17:40;42.50;;;21.07;;
3022;SDS011;1521;53.584;9.938;2023-04-08T05:20:06;37.47;;;17.80;;
3022;SDS011;1521;53.584;9.938;2023-04-08T05:22:32;42.90;;;18.53;;
3022;SDS011;1521;53.584;9.938;2023-04-08T05:24:58;39.57;;;18.80;;
3022;SDS011;1521;53.584;9.938;2023-04-08T05:27:24;41.73;;;18.53;;
3022;SDS011;1521;53.584;9.938;2023-04-08T05:29:50;40.27;;;18.70;;
3022;SDS011;1521;53.584;9.938;2023-04-08T05:32:15;40.77;;;18.93;;
3022;SDS011;1521;53.584;9.938;2023-04-08T05:34:41;41.37;;;18.97;;
3022;SDS011;1521;53.584;9.938;2023-04-08T05:37:07;42.50;;;18.07;;
3022;SDS011;1521;53.584;9.938;2023-04-08T05:39:33;35.97;;;18.63;;
3022;SDS011;1521;53.584;9.938;2023-04-08T05:41:58;39.27;;;18.03;;
3022;SDS011;1521;53.584;9.938;2023-04-08T05:44:24;39.97;;;18.50;;
3022;SDS011;1521;53.584;9.938;2023-04-08T05:46:50;39.70;;;17.77;;
3022;SDS011;1521;53.584;9.938;2023-04-08T05:49:15;35.57;;;17.70;;
3022;SDS011;1521;53.584;9.938;2023-04-08T05:51:41;36.27;;;17.50;;
3022;SDS011;1521;53.584;9.938;2023-04-08T05:54:08;41.77;;;16.80;;
3022;SDS011;1521;53.584;9.938;2023-04-08T05:56:34;36.50;;;17.67;;
3022;SDS011;1521;53.584;9.938;2023-04-08T05:59:00;36.43;;;18.33;;
3022;SDS011;1521;53.584;9.938;2023-04-08T06:01:25;36.23;;;18.20;;
3022;SDS011;1521;53.584;9.938;2023-04-08T06:03:51;34.07;;;17.70;;
3022;SDS011;1521;53.584;9.938;2023-04-08T06:06:17;40.83;;;18.23;;
3022;SDS011;1521;53.584;9.938;2023-04-08T06:08:42;35.83;;;17.90;;
3022;SDS011;1521;53.584;9.938;2023-04-08T06:11:08;33.53;;;17.60;;
3022;SDS011;1521;53.584;9.938;2023-04-08T06:13:34;34.70;;;18.17;;
3022;SDS011;1521;53.584;9.938;2023-04-08T06:16:09;39.37;;;17.60;;
3022;SDS011;1521;53.584;9.938;2023-04-08T06:18:35;47.67;;;19.60;;
3022;SDS011;1521;53.584;9.938;2023-04-08T06:21:00;43.30;;;19.97;;
3022;SDS011;1521;53.584;9.938;2023-04-08T06:23:26;46.90;;;21.07;;
3022;SDS011;1521;53.584;9.938;2023-04-08T06:25:52;51.57;;;22.30;;
3022;SDS011;1521;53.584;9.938;2023-04-08T06:28:18;46.13;;;21.13;;
3022;SDS011;1521;53.584;9.938;2023-04-08T06:30:43;41.77;;;19.80;;
3022;SDS011;1521;53.584;9.938;2023-04-08T06:33:09;43.83;;;19.60;;
3022;SDS011;1521;53.584;9.938;2023-04-08T06:35:35;44.13;;;19.37;;
3022;SDS011;1521;53.584;9.938;2023-04-08T06:38:01;46.30;;;20.00;;
3022;SDS011;1521;53.584;9.938;2023-04-08T06:40:27;39.47;;;18.33;;
3022;SDS011;1521;53.584;9.938;2023-04-08T06:42:53;39.23;;;17.60;;
3022;SDS011;1521;53.584;9.938;2023-04-08T06:45:18;40.57;;;18.30;;
3022;SDS011;1521;53.584;9.938;2023-04-08T06:47:44;48.50;;;20.00;;
3022;SDS011;1521;53.584;9.938;2023-04-08T06:50:09;44.30;;;18.60;;
3022;SDS011;1521;53.584;9.938;2023-04-08T06:52:35;38.63;;;18.90;;
3022;SDS011;1521;53.584;9.938;2023-04-08T06:55:01;41.67;;;19.30;;
3022;SDS011;1521;53.584;9.938;2023-04-08T06:57:26;40.73;;;19.73;;
3022;SDS011;1521;53.584;9.938;2023-04-08T06:59:52;42.27;;;19.40;;
3022;SDS011;1521;53.584;9.938;2023-04-08T07:02:18;40.47;;;19.10;;
3022;SDS011;1521;53.584;9.938;2023-04-08T07:04:43;35.80;;;17.80;;
3022;SDS011;1521;53.584;9.938;2023-04-08T07:07:09;38.40;;;19.03;;
3022;SDS011;1521;53.584;9.938;2023-04-08T07:09:34;39.10;;;17.57;;
3022;SDS011;1521;53.584;9.938;2023-04-08T07:12:01;33.80;;;17.53;;
3022;SDS011;1521;53.584;9.938;2023-04-08T07:14:28;33.30;;;17.23;;
3022;SDS011;1521;53.584;9.938;2023-04-08T07:16:54;39.13;;;18.23;;
3022;SDS011;1521;53.584;9.938;2023-04-08T07:19:20;33.73;;;16.87;;
3022;SDS011;1521;53.584;9.938;2023-04-08T07:21:48;32.07;;;16.80;;
3022;SDS011;1521;53.584;9.938;2023-04-08T07:24:13;40.33;;;18.47;;
3022;SDS011;1521;53.584;9.938;2023-04-08T07:26:39;35.17;;;18.07;;
3022;SDS011;1521;53.584;9.938;2023-04-08T07:29:05;34.30;;;18.23;;
3022;SDS011;1521;53.584;9.938;2023-04-08T07:31:31;31.30;;;15.40;;
3022;SDS011;1521;53.584;9.938;2023-04-08T07:33:57;32.53;;;16.87;;
3022;SDS011;1521;53.584;9.938;2023-04-08T07:36:23;31.43;;;16.47;;
3022;SDS011;1521;53.584;9.938;2023-04-08T07:38:48;36.87;;;16.57;;
3022;SDS011;1521;53.584;9.938;2023-04-08T07:41:14;37.37;;;16.80;;
3022;SDS011;1521;53.584;9.938;2023-04-08T07:43:40;35.90;;;17.17;;
3022;SDS011;1521;53.584;9.938;2023-04-08T07:46:05;33.97;;;16.33;;
3022;SDS011;1521;53.584;9.938;2023-04-08T07:48:32;30.17;;;15.83;;
3022;SDS011;1521;53.584;9.938;2023-04-08T07:51:04;30.80;;;15.70;;
3022;SDS011;1521;53.584;9.938;2023-04-08T07:53:31;31.77;;;16.13;;
3022;SDS011;1521;53.584;9.938;2023-04-08T07:55:57;32.97;;;15.93;;
3022;SDS011;1521;53.584;9.938;2023-04-08T07:58:23;30.53;;;15.30;;
3022;SDS011;1521;53.584;9.938;2023-04-08T08:00:48;29.00;;;14.63;;
3022;SDS011;1521;53.584;9.938;2023-04-08T08:03:14;24.50;;;13.40;;
3022;SDS011;1521;53.584;9.938;2023-04-08T08:05:40;29.23;;;14.93;;
3022;SDS011;1521;53.584;9.938;2023-04-08T08:08:06;28.00;;;15.73;;
3022;SDS011;1521;53.584;9.938;2023-04-08T08:10:31;26.43;;;14.17;;
3022;SDS011;1521;53.584;9.938;2023-04-08T08:12:57;27.50;;;13.60;;
3022;SDS011;1521;53.584;9.938;2023-04-08T08:15:23;28.53;;;15.43;;
3022;SDS011;1521;53.584;9.938;2023-04-08T08:17:49;25.13;;;13.90;;
3022;SDS011;1521;53.584;9.938;2023-04-08T08:20:14;29.83;;;14.63;;
3022;SDS011;1521;53.584;9.938;2023-04-08T08:22:40;31.63;;;14.77;;
3022;SDS011;1521;53.584;9.938;2023-04-08T08:25:06;31.70;;;15.17;;
3022;SDS011;1521;53.584;9.938;2023-04-08T08:27:33;31.07;;;15.93;;
3022;SDS011;1521;53.584;9.938;2023-04-08T08:30:00;27.03;;;14.97;;
3022;SDS011;1521;53.584;9.938;2023-04-08T08:32:26;36.00;;;17.13;;
3022;SDS011;1521;53.584;9.938;2023-04-08T08:34:52;30.97;;;16.30;;
3022;SDS011;1521;53.584;9.938;2023-04-08T08:37:17;32.07;;;16.40;;
3022;SDS011;1521;53.584;9.938;2023-04-08T08:39:43;32.90;;;16.07;;
3022;SDS011;1521;53.584;9.938;2023-04-08T08:42:21;30.87;;;16.27;;
3022;SDS011;1521;53.584;9.938;2023-04-08T08:44:48;36.23;;;16.50;;
3022;SDS011;1521;53.584;9.938;2023-04-08T08:47:14;34.73;;;17.40;;
3022;SDS011;1521;53.584;9.938;2023-04-08T08:49:41;29.03;;;15.40;;
3022;SDS011;1521;53.584;9.938;2023-04-08T08:52:07;28.73;;;15.20;;
3022;SDS011;1521;53.584;9.938;2023-04-08T08:54:32;28.13;;;15.03;;
3022;SDS011;1521;53.584;9.938;2023-04-08T08:56:58;29.10;;;14.53;;
3022;SDS011;1521;53.584;9.938;2023-04-08T08:59:23;25.50;;;14.07;;
3022;SDS011;1521;53.584;9.938;2023-04-08T09:01:49;28.60;;;14.93;;
3022;SDS011;1521;53.584;9.938;2023-04-08T09:04:17;32.33;;;15.40;;
3022;SDS011;1521;53.584;9.938;2023-04-08T09:06:45;28.23;;;15.10;;
3022;SDS011;1521;53.584;9.938;2023-04-08T09:09:11;28.60;;;14.33;;
3022;SDS011;1521;53.584;9.938;2023-04-08T09:11:38;32.43;;;14.80;;
3022;SDS011;1521;53.584;9.938;2023-04-08T09:14:15;24.83;;;14.73;;
3022;SDS011;1521;53.584;9.938;2023-04-08T09:16:45;24.33;;;15.40;;
3022;SDS011;1521;53.584;9.938;2023-04-08T09:19:11;30.67;;;16.80;;
3022;SDS011;1521;53.584;9.938;2023-04-08T09:21:37;30.57;;;16.53;;
3022;SDS011;1521;53.584;9.938;2023-04-08T09:24:04;28.50;;;15.50;;
3022;SDS011;1521;53.584;9.938;2023-04-08T09:26:30;27.40;;;16.13;;
3022;SDS011;1521;53.584;9.938;2023-04-08T09:28:57;31.70;;;15.50;;
3022;SDS011;1521;53.584;9.938;2023-04-08T09:31:30;30.67;;;16.17;;
3022;SDS011;1521;53.584;9.938;2023-04-08T09:34:08;28.03;;;16.60;;
3022;SDS011;1521;53.584;9.938;2023-04-08T09:36:43;33.20;;;16.43;;
3022;SDS011;1521;53.584;9.938;2023-04-08T09:39:09;31.80;;;15.80;;
3022;SDS011;1521;53.584;9.938;2023-04-08T09:41:37;26.27;;;15.20;;
3022;SDS011;1521;53.584;9.938;2023-04-08T09:44:04;29.67;;;14.60;;
3022;SDS011;1521;53.584;9.938;2023-04-08T09:52:06;26.93;;;14.80;;
3022;SDS011;1521;53.584;9.938;2023-04-08T10:00:10;25.27;;;13.90;;
3022;SDS011;1521;53.584;9.938;2023-04-08T10:05:11;24.67;;;14.10;;
3022;SDS011;1521;53.584;9.938;2023-04-08T10:07:37;24.67;;;14.80;;
3022;SDS011;1521;53.584;9.938;2023-04-08T10:10:04;30.93;;;15.90;;
3022;SDS011;1521;53.584;9.938;2023-04-08T10:12:31;26.13;;;16.23;;
3022;SDS011;1521;53.584;9.938;2023-04-08T10:17:49;29.03;;;16.50;;
3022;SDS011;1521;53.584;9.938;2023-04-08T10:23:03;31.87;;;16.30;;
3022;SDS011;1521;53.584;9.938;2023-04-08T10:25:33;27.30;;;15.53;;
3022;SDS011;1521;53.584;9.938;2023-04-08T10:27:59;28.47;;;15.80;;
3022;SDS011;1521;53.584;9.938;2023-04-08T10:32:55;31.40;;;16.63;;
3022;SDS011;1521;53.584;9.938;2023-04-08T10:35:32;30.43;;;15.70;;
3022;SDS011;1521;53.584;9.938;2023-04-08T10:38:00;26.60;;;15.30;;
3022;SDS011;1521;53.584;9.938;2023-04-08T10:40:26;27.43;;;14.37;;
3022;SDS011;1521;53.584;9.938;2023-04-08T10:42:54;28.93;;;15.83;;
3022;SDS011;1521;53.584;9.938;2023-04-08T10:45:21;30.40;;;14.67;;
3022;SDS011;1521;53.584;9.938;2023-04-08T10:47:46;27.10;;;16.17;;
3022;SDS011;1521;53.584;9.938;2023-04-08T10:50:12;27.73;;;15.17;;
3022;SDS011;1521;53.584;9.938;2023-04-08T10:52:52;25.90;;;14.27;;
3022;SDS011;1521;53.584;9.938;2023-04-08T10:55:21;30.23;;;16.47;;
3022;SDS011;1521;53.584;9.938;2023-04-08T10:57:49;27.03;;;16.27;;
3022;SDS011;1521;53.584;9.938;2023-04-08T11:00:18;28.10;;;16.83;;
3022;SDS011;1521;53.584;9.938;2023-04-08T11:03:08;27.93;;;16.67;;
3022;SDS011;1521;53.584;9.938;2023-04-08T11:05:35;29.93;;;17.03;;
3022;SDS011;1521;53.584;9.938;2023-04-08T11:08:03;27.53;;;16.67;;
3022;SDS011;1521;53.584;9.938;2023-04-08T11:10:29;32.50;;;16.70;;
3022;SDS011;1521;53.584;9.938;2023-04-08T11:13:01;32.33;;;16.40;;
3022;SDS011;1521;53.584;9.938;2023-04-08T11:15:28;30.10;;;17.00;;
3022;SDS011;1521;53.584;9.938;2023-04-08T11:17:54;27.77;;;16.37;;
3022;SDS011;1521;53.584;9.938;2023-04-08T11:20:20;27.73;;;16.50;;
3022;SDS011;1521;53.584;9.938;2023-04-08T11:22:46;29.23;;;17.30;;
3022;SDS011;1521;53.584;9.938;2023-04-08T11:25:12;31.33;;;17.30;;
3022;SDS011;1521;53.584;9.938;2023-04-08T11:27:38;26.97;;;16.60;;
3022;SDS011;1521;53.584;9.938;2023-04-08T11:30:05;29.30;;;17.50;;
3022;SDS011;1521;53.584;9.938;2023-04-08T11:32:32;32.80;;;17.53;;
3022;SDS011;1521;53.584;9.938;2023-04-08T11:35:00;32.50;;;17.27;;
3022;SDS011;1521;53.584;9.938;2023-04-08T11:37:26;32.50;;;17.50;;
3022;SDS011;1521;53.584;9.938;2023-04-08T11:40:01;34.90;;;17.60;;
3022;SDS011;1521;53.584;9.938;2023-04-08T11:42:31;33.73;;;19.17;;
3022;SDS011;1521;53.584;9.938;2023-04-08T11:44:57;30.17;;;18.37;;
3022;SDS011;1521;53.584;9.938;2023-04-08T11:47:29;33.93;;;19.90;;
3022;SDS011;1521;53.584;9.938;2023-04-08T11:49:56;36.17;;;19.80;;
3022;SDS011;1521;53.584;9.938;2023-04-08T11:52:22;36.70;;;19.03;;
3022;SDS011;1521;53.584;9.938;2023-04-08T11:55:04;36.70;;;19.70;;
3022;SDS011;1521;53.584;9.938;2023-04-08T11:57:30;34.93;;;20.17;;
3022;SDS011;1521;53.584;9.938;2023-04-08T11:59:56;34.67;;;19.20;;
3022;SDS011;1521;53.584;9.938;2023-04-08T12:02:22;35.13;;;18.83;;
3022;SDS011;1521;53.584;9.938;2023-04-08T12:04:48;27.20;;;18.20;;
3022;SDS011;1521;53.584;9.938;2023-04-08T12:07:13;31.00;;;18.20;;
3022;SDS011;1521;53.584;9.938;2023-04-08T12:09:39;36.27;;;21.17;;
3022;SDS011;1521;53.584;9.938;2023-04-08T12:12:05;33.30;;;19.53;;
3022;SDS011;1521;53.584;9.938;2023-04-08T12:14:31;42.30;;;19.73;;
3022;SDS011;1521;53.584;9.938;2023-04-08T12:16:56;34.17;;;19.80;;
3022;SDS011;1521;53.584;9.938;2023-04-08T12:19:22;39.83;;;20.47;;
3022;SDS011;1521;53.584;9.938;2023-04-08T12:21:48;34.70;;;19.00;;
3022;SDS011;1521;53.584;9.938;2023-04-08T12:24:13;33.67;;;19.97;;
3022;SDS011;1521;53.584;9.938;2023-04-08T12:26:39;36.67;;;20.33;;
3022;SDS011;1521;53.584;9.938;2023-04-08T12:29:04;40.67;;;20.67;;
3022;SDS011;1521;53.584;9.938;2023-04-08T12:31:30;39.60;;;21.63;;
3022;SDS011;1521;53.584;9.938;2023-04-08T12:33:56;37.23;;;20.80;;
3022;SDS011;1521;53.584;9.938;2023-04-08T12:36:22;35.93;;;19.50;;
3022;SDS011;1521;53.584;9.938;2023-04-08T12:38:47;39.03;;;20.70;;
3022;SDS011;1521;53.584;9.938;2023-04-08T12:41:13;33.27;;;20.00;;
3022;SDS011;1521;53.584;9.938;2023-04-08T12:43:38;29.80;;;18.10;;
3022;SDS011;1521;53.584;9.938;2023-04-08T12:46:04;26.77;;;16.93;;
3022;SDS011;1521;53.584;9.938;2023-04-08T12:48:30;30.33;;;17.37;;
3022;SDS011;1521;53.584;9.938;2023-04-08T12:50:56;28.73;;;17.50;;
3022;SDS011;1521;53.584;9.938;2023-04-08T12:53:22;30.40;;;18.33;;
3022;SDS011;1521;53.584;9.938;2023-04-08T12:55:48;34.80;;;18.30;;
3022;SDS011;1521;53.584;9.938;2023-04-08T12:58:15;29.67;;;16.83;;
3022;SDS011;1521;53.584;9.938;2023-04-08T13:00:41;30.13;;;17.83;;
3022;SDS011;1521;53.584;9.938;2023-04-08T13:03:10;27.07;;;17.00;;
3022;SDS011;1521;53.584;9.938;2023-04-08T13:05:36;24.70;;;16.37;;
3022;SDS011;1521;53.584;9.938;2023-04-08T13:08:02;33.33;;;17.97;;
3022;SDS011;1521;53.584;9.938;2023-04-08T13:10:28;32.47;;;18.60;;
3022;SDS011;1521;53.584;9.938;2023-04-08T13:12:53;29.17;;;17.90;;
3022;SDS011;1521;53.584;9.938;2023-04-08T13:15:19;26.30;;;17.03;;
3022;SDS011;1521;53.584;9.938;2023-04-08T13:17:45;26.87;;;18.27;;
3022;SDS011;1521;53.584;9.938;2023-04-08T13:20:10;29.27;;;17.70;;
3022;SDS011;1521;53.584;9.938;2023-04-08T13:22:36;26.77;;;17.47;;
3022;SDS011;1521;53.584;9.938;2023-04-08T13:25:02;31.13;;;19.03;;
3022;SDS011;1521;53.584;9.938;2023-04-08T13:27:30;33.30;;;19.30;;
3022;SDS011;1521;53.584;9.938;2023-04-08T13:29:55;26.70;;;17.83;;
3022;SDS011;1521;53.584;9.938;2023-04-08T13:32:21;32.80;;;18.67;;
3022;SDS011;1521;53.584;9.938;2023-04-08T13:34:47;35.83;;;17.97;;
3022;SDS011;1521;53.584;9.938;2023-04-08T13:37:12;29.93;;;17.87;;
3022;SDS011;1521;53.584;9.938;2023-04-08T13:39:38;30.13;;;17.53;;
3022;SDS011;1521;53.584;9.938;2023-04-08T13:42:03;31.83;;;17.73;;
3022;SDS011;1521;53.584;9.938;2023-04-08T13:44:29;27.27;;;18.77;;
3022;SDS011;1521;53.584;9.938;2023-04-08T13:46:57;27.87;;;17.73;;
3022;SDS011;1521;53.584;9.938;2023-04-08T13:49:22;35.13;;;17.60;;
3022;SDS011;1521;53.584;9.938;2023-04-08T13:51:48;27.57;;;18.30;;
3022;SDS011;1521;53.584;9.938;2023-04-08T13:54:13;30.07;;;18.23;;
3022;SDS011;1521;53.584;9.938;2023-04-08T13:56:39;30.20;;;18.00;;
3022;SDS011;1521;53.584;9.938;2023-04-08T13:59:05;32.20;;;18.70;;
3022;SDS011;1521;53.584;9.938;2023-04-08T14:01:31;26.37;;;17.47;;
3022;SDS011;1521;53.584;9.938;2023-04-08T14:03:57;36.03;;;18.23;;
3022;SDS011;1521;53.584;9.938;2023-04-08T14:06:22;33.13;;;20.13;;
3022;SDS011;1521;53.584;9.938;2023-04-08T14:08:48;32.90;;;19.60;;
3022;SDS011;1521;53.584;9.938;2023-04-08T14:11:14;30.50;;;19.63;;
3022;SDS011;1521;53.584;9.938;2023-04-08T14:13:39;30.70;;;19.63;;
3022;SDS011;1521;53.584;9.938;2023-04-08T14:16:05;35.43;;;21.30;;
3022;SDS011;1521;53.584;9.938;2023-04-08T14:18:30;31.03;;;20.50;;
3022;SDS011;1521;53.584;9.938;2023-04-08T14:20:56;35.30;;;21.60;;
3022;SDS011;1521;53.584;9.938;2023-04-08T14:23:22;33.93;;;20.30;;
3022;SDS011;1521;53.584;9.938;2023-04-08T14:25:47;38.97;;;20.77;;
3022;SDS011;1521;53.584;9.938;2023-04-08T14:28:13;37.60;;;21.23;;
3022;SDS011;1521;53.584;9.938;2023-04-08T14:30:38;39.37;;;21.70;;
3022;SDS011;1521;53.584;9.938;2023-04-08T14:33:04;38.83;;;23.20;;
3022;SDS011;1521;53.584;9.938;2023-04-08T14:35:30;34.47;;;21.80;;
3022;SDS011;1521;53.584;9.938;2023-04-08T14:37:55;40.40;;;21.43;;
3022;SDS011;1521;53.584;9.938;2023-04-08T14:40:21;36.83;;;21.20;;
3022;SDS011;1521;53.584;9.938;2023-04-08T14:42:48;36.20;;;22.53;;
3022;SDS011;1521;53.584;9.938;2023-04-08T14:45:14;35.33;;;23.17;;
3022;SDS011;1521;53.584;9.938;2023-04-08T14:47:40;36.23;;;22.37;;
3022;SDS011;1521;53.584;9.938;2023-04-08T14:50:05;37.30;;;23.07;;
3022;SDS011;1521;53.584;9.938;2023-04-08T14:52:31;39.20;;;25.27;;
3022;SDS011;1521;53.584;9.938;2023-04-08T14:54:57;46.90;;;29.20;;
3022;SDS011;1521;53.584;9.938;2023-04-08T14:57:23;71.10;;;42.17;;
3022;SDS011;1521;53.584;9.938;2023-04-08T14:59:48;46.73;;;28.90;;
3022;SDS011;1521;53.584;9.938;2023-04-08T15:02:14;44.97;;;29.13;;
3022;SDS011;1521;53.584;9.938;2023-04-08T15:04:39;39.40;;;24.90;;
3022;SDS011;1521;53.584;9.938;2023-04-08T15:07:05;48.00;;;26.43;;
3022;SDS011;1521;53.584;9.938;2023-04-08T15:09:31;46.33;;;26.20;;
3022;SDS011;1521;53.584;9.938;2023-04-08T15:11:57;45.47;;;28.27;;
3022;SDS011;1521;53.584;9.938;2023-04-08T15:14:22;63.27;;;34.20;;
3022;SDS011;1521;53.584;9.938;2023-04-08T15:16:48;102.50;;;50.97;;